sensor_id;sensor_type;location;lat;lon;timestamp;P1;durP1;ratioP1;P2;durP2;ratioP2
72156;SDS011;60035;52.122;5.406;2023-03-23T00:01:28;8.85;;;3.50;;
72156;SDS011;60035;52.122;5.406;2023-03-23T00:04:03;11.75;;;3.95;;
72156;SDS011;60035;52.122;5.406;2023-03-23T00:06:28;9.82;;;3.80;;
72156;SDS011;60035;52.122;5.406;2023-03-23T00:11:27;11.55;;;3.75;;
72156;SDS011;60035;52.122;5.406;2023-03-23T00:13:54;10.85;;;3.85;;
72156;SDS011;60035;52.122;5.406;2023-03-23T00:16:23;10.52;;;3.50;;
72156;SDS011;60035;52.122;5.406;2023-03-23T00:19:14;9.85;;;3.40;;
72156;SDS011;60035;52.122;5.406;2023-03-23T00:21:41;7.78;;;3.28;;
72156;SDS011;60035;52.122;5.406;2023-03-23T00:24:12;12.73;;;3.58;;
72156;SDS011;60035;52.122;5.406;2023-03-23T00:26:41;10.65;;;3.20;;
72156;SDS011;60035;52.122;5.406;2023-03-23T00:29:18;9.10;;;3.15;;
72156;SDS011;60035;52.122;5.406;2023-03-23T00:31:46;9.20;;;3.17;;
72156;SDS011;60035;52.122;5.406;2023-03-23T00:34:19;8.10;;;3.00;;
72156;SDS011;60035;52.122;5.406;2023-03-23T00:36:47;8.18;;;3.53;;
72156;SDS011;60035;52.122;5.406;2023-03-23T00:39:14;10.65;;;3.40;;
72156;SDS011;60035;52.122;5.406;2023-03-23T00:41:41;7.40;;;3.08;;
72156;SDS011;60035;52.122;5.406;2023-03-23T00:44:08;9.65;;;3.45;;
72156;SDS011;60035;52.122;5.406;2023-03-23T00:46:33;8.57;;;2.92;;
72156;SDS011;60035;52.122;5.406;2023-03-23T00:48:59;8.57;;;3.05;;
72156;SDS011;60035;52.122;5.406;2023-03-23T00:51:24;9.75;;;2.88;;
72156;SDS011;60035;52.122;5.406;2023-03-23T00:53:50;7.40;;;3.00;;
72156;SDS011;60035;52.122;5.406;2023-03-23T00:56:16;7.28;;;2.70;;
72156;SDS011;60035;52.122;5.406;2023-03-23T00:58:42;7.63;;;2.42;;
72156;SDS011;60035;52.122;5.406;2023-03-23T01:01:07;6.97;;;2.60;;
72156;SDS011;60035;52.122;5.406;2023-03-23T01:03:34;9.13;;;2.90;;
72156;SDS011;60035;52.122;5.406;2023-03-23T01:06:07;8.50;;;2.70;;
72156;SDS011;60035;52.122;5.406;2023-03-23T01:08:38;7.05;;;2.60;;
72156;SDS011;60035;52.122;5.406;2023-03-23T01:11:10;10.38;;;2.65;;
72156;SDS011;60035;52.122;5.406;2023-03-23T01:13:43;7.82;;;2.70;;
72156;SDS011;60035;52.122;5.406;2023-03-23T01:16:09;8.32;;;2.83;;
72156;SDS011;60035;52.122;5.406;2023-03-23T01:18:36;7.97;;;2.60;;
72156;SDS011;60035;52.122;5.406;2023-03-23T01:21:13;7.18;;;2.78;;
72156;SDS011;60035;52.122;5.406;2023-03-23T01:23:41;7.93;;;2.58;;
72156;SDS011;60035;52.122;5.406;2023-03-23T01:26:11;10.60;;;2.92;;
72156;SDS011;60035;52.122;5.406;2023-03-23T01:28:39;7.00;;;2.38;;
72156;SDS011;60035;52.122;5.406;2023-03-23T01:31:06;7.05;;;2.75;;
72156;SDS011;60035;52.122;5.406;2023-03-23T01:33:34;8.30;;;2.55;;
72156;SDS011;60035;52.122;5.406;2023-03-23T01:36:06;7.45;;;2.63;;
72156;SDS011;60035;52.122;5.406;2023-03-23T01:38:35;7.85;;;2.92;;
72156;SDS011;60035;52.122;5.406;2023-03-23T01:41:00;10.52;;;2.63;;
72156;SDS011;60035;52.122;5.406;2023-03-23T01:43:27;7.05;;;2.45;;
72156;SDS011;60035;52.122;5.406;2023-03-23T01:45:52;7.40;;;2.75;;
72156;SDS011;60035;52.122;5.406;2023-03-23T01:50:48;9.18;;;2.22;;
72156;SDS011;60035;52.122;5.406;2023-03-23T01:53:17;8.05;;;2.75;;
72156;SDS011;60035;52.122;5.406;2023-03-23T01:55:43;6.38;;;2.60;;
72156;SDS011;60035;52.122;5.406;2023-03-23T01:58:13;5.95;;;2.33;;
72156;SDS011;60035;52.122;5.406;2023-03-23T02:00:40;8.50;;;2.80;;
72156;SDS011;60035;52.122;5.406;2023-03-23T02:03:07;10.13;;;2.33;;
72156;SDS011;60035;52.122;5.406;2023-03-23T02:05:37;8.48;;;2.88;;
72156;SDS011;60035;52.122;5.406;2023-03-23T02:08:05;8.43;;;2.60;;
72156;SDS011;60035;52.122;5.406;2023-03-23T02:10:34;7.85;;;2.90;;
72156;SDS011;60035;52.122;5.406;2023-03-23T02:13:00;6.68;;;2.50;;
72156;SDS011;60035;52.122;5.406;2023-03-23T02:15:31;6.35;;;2.65;;
72156;SDS011;60035;52.122;5.406;2023-03-23T02:29:30;6.82;;;2.33;;
72156;SDS011;60035;52.122;5.406;2023-03-23T02:34:56;6.75;;;2.50;;
72156;SDS011;60035;52.122;5.406;2023-03-23T02:37:28;7.55;;;2.88;;
72156;SDS011;60035;52.122;5.406;2023-03-23T02:40:41;9.10;;;2.55;;
72156;SDS011;60035;52.122;5.406;2023-03-23T02:42:53;9.15;;;2.42;;
72156;SDS011;60035;52.122;5.406;2023-03-23T02:45:20;6.43;;;2.70;;
72156;SDS011;60035;52.122;5.406;2023-03-23T02:47:50;8.55;;;2.78;;
72156;SDS011;60035;52.122;5.406;2023-03-23T02:50:18;6.95;;;2.67;;
72156;SDS011;60035;52.122;5.406;2023-03-23T02:52:47;8.35;;;3.15;;
72156;SDS011;60035;52.122;5.406;2023-03-23T02:55:15;9.52;;;3.35;;
72156;SDS011;60035;52.122;5.406;2023-03-23T02:57:42;7.57;;;2.88;;
72156;SDS011;60035;52.122;5.406;2023-03-23T03:00:10;6.65;;;2.70;;
72156;SDS011;60035;52.122;5.406;2023-03-23T03:02:39;7.25;;;2.75;;
72156;SDS011;60035;52.122;5.406;2023-03-23T03:05:21;8.05;;;3.20;;
72156;SDS011;60035;52.122;5.406;2023-03-23T03:10:49;6.47;;;2.70;;
72156;SDS011;60035;52.122;5.406;2023-03-23T03:15:53;7.40;;;2.75;;
72156;SDS011;60035;52.122;5.406;2023-03-23T03:18:28;6.82;;;2.80;;
72156;SDS011;60035;52.122;5.406;2023-03-23T03:21:01;9.13;;;2.47;;
72156;SDS011;60035;52.122;5.406;2023-03-23T03:23:30;6.03;;;2.28;;
72156;SDS011;60035;52.122;5.406;2023-03-23T03:25:57;7.20;;;2.58;;
72156;SDS011;60035;52.122;5.406;2023-03-23T03:28:25;5.68;;;2.20;;
72156;SDS011;60035;52.122;5.406;2023-03-23T03:30:56;7.43;;;2.20;;
72156;SDS011;60035;52.122;5.406;2023-03-23T03:33:26;8.25;;;2.78;;
72156;SDS011;60035;52.122;5.406;2023-03-23T03:35:56;7.45;;;2.30;;
72156;SDS011;60035;52.122;5.406;2023-03-23T03:38:25;8.45;;;2.53;;
72156;SDS011;60035;52.122;5.406;2023-03-23T03:40:51;6.18;;;1.85;;
72156;SDS011;60035;52.122;5.406;2023-03-23T03:43:16;5.28;;;1.92;;
72156;SDS011;60035;52.122;5.406;2023-03-23T03:45:42;6.13;;;1.95;;
72156;SDS011;60035;52.122;5.406;2023-03-23T03:48:08;10.13;;;2.63;;
72156;SDS011;60035;52.122;5.406;2023-03-23T03:50:33;6.65;;;2.08;;
72156;SDS011;60035;52.122;5.406;2023-03-23T03:52:59;5.90;;;1.92;;
72156;SDS011;60035;52.122;5.406;2023-03-23T03:55:24;6.50;;;1.85;;
72156;SDS011;60035;52.122;5.406;2023-03-23T03:57:50;6.07;;;1.98;;
72156;SDS011;60035;52.122;5.406;2023-03-23T04:00:15;6.22;;;1.77;;
72156;SDS011;60035;52.122;5.406;2023-03-23T04:02:42;7.60;;;1.90;;
72156;SDS011;60035;52.122;5.406;2023-03-23T04:05:09;4.80;;;1.55;;
72156;SDS011;60035;52.122;5.406;2023-03-23T04:07:35;8.80;;;2.25;;
72156;SDS011;60035;52.122;5.406;2023-03-23T04:10:04;5.85;;;1.73;;
72156;SDS011;60035;52.122;5.406;2023-03-23T04:12:33;6.60;;;1.98;;
72156;SDS011;60035;52.122;5.406;2023-03-23T04:15:00;6.18;;;1.92;;
72156;SDS011;60035;52.122;5.406;2023-03-23T04:17:25;6.35;;;1.70;;
72156;SDS011;60035;52.122;5.406;2023-03-23T04:19:51;7.60;;;1.95;;
72156;SDS011;60035;52.122;5.406;2023-03-23T04:22:17;11.27;;;2.28;;
72156;SDS011;60035;52.122;5.406;2023-03-23T04:24:43;7.05;;;1.85;;
72156;SDS011;60035;52.122;5.406;2023-03-23T04:27:08;7.07;;;2.08;;
72156;SDS011;60035;52.122;5.406;2023-03-23T04:29:34;6.93;;;1.80;;
72156;SDS011;60035;52.122;5.406;2023-03-23T04:31:59;8.05;;;1.70;;
72156;SDS011;60035;52.122;5.406;2023-03-23T04:34:26;8.02;;;1.52;;
72156;SDS011;60035;52.122;5.406;2023-03-23T04:36:52;5.28;;;1.50;;
72156;SDS011;60035;52.122;5.406;2023-03-23T04:39:18;6.78;;;1.63;;
72156;SDS011;60035;52.122;5.406;2023-03-23T04:41:44;4.07;;;1.40;;
72156;SDS011;60035;52.122;5.406;2023-03-23T04:44:11;4.65;;;1.63;;
72156;SDS011;60035;52.122;5.406;2023-03-23T04:46:42;7.30;;;1.40;;
72156;SDS011;60035;52.122;5.406;2023-03-23T04:49:10;8.40;;;1.30;;
72156;SDS011;60035;52.122;5.406;2023-03-23T04:51:35;7.15;;;1.83;;
72156;SDS011;60035;52.122;5.406;2023-03-23T04:54:01;8.07;;;1.58;;
72156;SDS011;60035;52.122;5.406;2023-03-23T04:56:26;6.07;;;1.30;;
72156;SDS011;60035;52.122;5.406;2023-03-23T04:58:52;6.55;;;1.20;;
72156;SDS011;60035;52.122;5.406;2023-03-23T05:01:17;7.07;;;1.52;;
72156;SDS011;60035;52.122;5.406;2023-03-23T05:03:43;9.88;;;1.67;;
72156;SDS011;60035;52.122;5.406;2023-03-23T05:06:10;9.13;;;1.35;;
72156;SDS011;60035;52.122;5.406;2023-03-23T05:08:35;6.55;;;1.33;;
72156;SDS011;60035;52.122;5.406;2023-03-23T05:11:04;8.25;;;1.40;;
72156;SDS011;60035;52.122;5.406;2023-03-23T05:13:30;7.22;;;1.42;;
72156;SDS011;60035;52.122;5.406;2023-03-23T05:15:57;7.30;;;1.38;;
72156;SDS011;60035;52.122;5.406;2023-03-23T05:18:22;7.00;;;1.02;;
72156;SDS011;60035;52.122;5.406;2023-03-23T05:20:48;9.55;;;1.38;;
72156;SDS011;60035;52.122;5.406;2023-03-23T05:23:17;5.75;;;1.10;;
72156;SDS011;60035;52.122;5.406;2023-03-23T05:25:52;6.38;;;1.92;;
72156;SDS011;60035;52.122;5.406;2023-03-23T05:28:20;5.75;;;1.33;;
72156;SDS011;60035;52.122;5.406;2023-03-23T05:30:47;9.32;;;1.40;;
72156;SDS011;60035;52.122;5.406;2023-03-23T05:33:13;11.48;;;1.63;;
72156;SDS011;60035;52.122;5.406;2023-03-23T05:35:38;5.88;;;1.40;;
72156;SDS011;60035;52.122;5.406;2023-03-23T05:38:04;6.32;;;1.10;;
72156;SDS011;60035;52.122;5.406;2023-03-23T05:40:30;10.07;;;1.40;;
72156;SDS011;60035;52.122;5.406;2023-03-23T05:42:55;7.70;;;1.48;;
72156;SDS011;60035;52.122;5.406;2023-03-23T05:45:24;9.35;;;1.55;;
72156;SDS011;60035;52.122;5.406;2023-03-23T05:47:49;6.97;;;1.33;;
72156;SDS011;60035;52.122;5.406;2023-03-23T05:50:15;5.50;;;1.30;;
72156;SDS011;60035;52.122;5.406;2023-03-23T05:52:41;9.50;;;1.52;;
72156;SDS011;60035;52.122;5.406;2023-03-23T05:55:07;6.68;;;1.10;;
72156;SDS011;60035;52.122;5.406;2023-03-23T05:57:33;11.57;;;1.65;;
72156;SDS011;60035;52.122;5.406;2023-03-23T05:59:58;7.80;;;1.33;;
72156;SDS011;60035;52.122;5.406;2023-03-23T06:02:25;11.23;;;1.50;;
72156;SDS011;60035;52.122;5.406;2023-03-23T06:04:53;9.45;;;1.40;;
72156;SDS011;60035;52.122;5.406;2023-03-23T06:07:22;9.43;;;1.88;;
72156;SDS011;60035;52.122;5.406;2023-03-23T06:09:51;8.05;;;1.45;;
72156;SDS011;60035;52.122;5.406;2023-03-23T06:12:17;9.50;;;1.50;;
72156;SDS011;60035;52.122;5.406;2023-03-23T06:14:46;8.57;;;1.42;;
72156;SDS011;60035;52.122;5.406;2023-03-23T06:17:13;12.63;;;2.25;;
72156;SDS011;60035;52.122;5.406;2023-03-23T06:19:39;9.13;;;1.90;;
72156;SDS011;60035;52.122;5.406;2023-03-23T06:22:05;8.55;;;1.25;;
72156;SDS011;60035;52.122;5.406;2023-03-23T06:24:31;10.48;;;2.03;;
72156;SDS011;60035;52.122;5.406;2023-03-23T06:26:57;8.52;;;1.63;;
72156;SDS011;60035;52.122;5.406;2023-03-23T06:29:23;10.52;;;2.13;;
72156;SDS011;60035;52.122;5.406;2023-03-23T06:31:50;8.18;;;1.33;;
72156;SDS011;60035;52.122;5.406;2023-03-23T06:34:19;10.73;;;1.73;;
72156;SDS011;60035;52.122;5.406;2023-03-23T06:36:44;8.25;;;1.65;;
72156;SDS011;60035;52.122;5.406;2023-03-23T06:39:10;9.40;;;1.67;;
72156;SDS011;60035;52.122;5.406;2023-03-23T06:41:36;8.85;;;2.15;;
72156;SDS011;60035;52.122;5.406;2023-03-23T06:44:01;11.07;;;1.90;;
72156;SDS011;60035;52.122;5.406;2023-03-23T06:46:27;8.65;;;2.40;;
72156;SDS011;60035;52.122;5.406;2023-03-23T06:48:54;15.25;;;2.15;;
72156;SDS011;60035;52.122;5.406;2023-03-23T06:51:20;7.45;;;1.77;;
72156;SDS011;60035;52.122;5.406;2023-03-23T06:53:46;8.50;;;1.90;;
72156;SDS011;60035;52.122;5.406;2023-03-23T06:56:11;8.27;;;1.70;;
72156;SDS011;60035;52.122;5.406;2023-03-23T06:58:38;11.07;;;1.80;;
72156;SDS011;60035;52.122;5.406;2023-03-23T07:01:04;9.30;;;1.65;;
72156;SDS011;60035;52.122;5.406;2023-03-23T07:03:30;7.50;;;1.77;;
72156;SDS011;60035;52.122;5.406;2023-03-23T07:05:56;11.98;;;2.00;;
72156;SDS011;60035;52.122;5.406;2023-03-23T07:08:23;12.35;;;2.00;;
72156;SDS011;60035;52.122;5.406;2023-03-23T07:10:53;7.30;;;1.92;;
72156;SDS011;60035;52.122;5.406;2023-03-23T07:13:20;8.23;;;1.65;;
72156;SDS011;60035;52.122;5.406;2023-03-23T07:15:46;8.30;;;1.58;;
72156;SDS011;60035;52.122;5.406;2023-03-23T07:18:13;6.70;;;1.58;;
72156;SDS011;60035;52.122;5.406;2023-03-23T07:20:38;8.88;;;1.77;;
72156;SDS011;60035;52.122;5.406;2023-03-23T07:23:04;7.70;;;1.75;;
72156;SDS011;60035;52.122;5.406;2023-03-23T07:25:33;7.68;;;1.83;;
72156;SDS011;60035;52.122;5.406;2023-03-23T07:28:00;11.95;;;1.80;;
72156;SDS011;60035;52.122;5.406;2023-03-23T07:30:27;7.78;;;2.10;;
72156;SDS011;60035;52.122;5.406;2023-03-23T07:32:56;9.50;;;1.92;;
72156;SDS011;60035;52.122;5.406;2023-03-23T07:35:23;10.32;;;2.13;;
72156;SDS011;60035;52.122;5.406;2023-03-23T07:37:49;6.30;;;1.58;;
72156;SDS011;60035;52.122;5.406;2023-03-23T07:40:16;4.70;;;1.08;;
72156;SDS011;60035;52.122;5.406;2023-03-23T07:42:42;10.85;;;2.00;;
72156;SDS011;60035;52.122;5.406;2023-03-23T07:45:09;11.55;;;1.45;;
72156;SDS011;60035;52.122;5.406;2023-03-23T07:47:36;7.30;;;1.33;;
72156;SDS011;60035;52.122;5.406;2023-03-23T07:50:03;7.95;;;1.77;;
72156;SDS011;60035;52.122;5.406;2023-03-23T07:52:29;8.82;;;1.75;;
72156;SDS011;60035;52.122;5.406;2023-03-23T07:54:56;7.28;;;1.52;;
72156;SDS011;60035;52.122;5.406;2023-03-23T07:57:21;9.65;;;1.60;;
72156;SDS011;60035;52.122;5.406;2023-03-23T07:59:47;6.68;;;1.50;;
72156;SDS011;60035;52.122;5.406;2023-03-23T08:02:13;8.25;;;1.85;;
72156;SDS011;60035;52.122;5.406;2023-03-23T08:04:38;8.63;;;1.90;;
72156;SDS011;60035;52.122;5.406;2023-03-23T08:07:04;11.50;;;1.90;;
72156;SDS011;60035;52.122;5.406;2023-03-23T08:09:30;9.27;;;2.10;;
72156;SDS011;60035;52.122;5.406;2023-03-23T08:11:56;6.43;;;1.73;;
72156;SDS011;60035;52.122;5.406;2023-03-23T08:14:22;8.77;;;1.67;;
72156;SDS011;60035;52.122;5.406;2023-03-23T08:16:51;6.60;;;1.83;;
72156;SDS011;60035;52.122;5.406;2023-03-23T08:19:17;6.43;;;1.70;;
72156;SDS011;60035;52.122;5.406;2023-03-23T08:21:42;11.30;;;1.50;;
72156;SDS011;60035;52.122;5.406;2023-03-23T08:24:08;9.32;;;1.80;;
72156;SDS011;60035;52.122;5.406;2023-03-23T08:26:33;7.97;;;1.90;;
72156;SDS011;60035;52.122;5.406;2023-03-23T08:28:59;9.98;;;1.70;;
72156;SDS011;60035;52.122;5.406;2023-03-23T08:31:25;8.68;;;1.60;;
72156;SDS011;60035;52.122;5.406;2023-03-23T08:33:50;8.85;;;1.67;;
72156;SDS011;60035;52.122;5.406;2023-03-23T08:36:16;7.20;;;1.65;;
72156;SDS011;60035;52.122;5.406;2023-03-23T08:38:43;6.05;;;1.45;;
72156;SDS011;60035;52.122;5.406;2023-03-23T08:41:09;6.68;;;1.60;;
72156;SDS011;60035;52.122;5.406;2023-03-23T08:43:35;10.80;;;1.75;;
72156;SDS011;60035;52.122;5.406;2023-03-23T08:46:01;7.38;;;1.90;;
72156;SDS011;60035;52.122;5.406;2023-03-23T08:50:58;6.55;;;1.58;;
72156;SDS011;60035;52.122;5.406;2023-03-23T08:53:24;10.02;;;1.98;;
72156;SDS011;60035;52.122;5.406;2023-03-23T08:55:51;11.18;;;2.05;;
72156;SDS011;60035;52.122;5.406;2023-03-23T08:58:16;7.43;;;1.58;;
72156;SDS011;60035;52.122;5.406;2023-03-23T09:00:42;9.13;;;1.92;;
72156;SDS011;60035;52.122;5.406;2023-03-23T09:03:08;8.75;;;1.50;;
72156;SDS011;60035;52.122;5.406;2023-03-23T09:05:34;6.68;;;1.75;;
72156;SDS011;60035;52.122;5.406;2023-03-23T09:08:00;6.10;;;1.58;;
72156;SDS011;60035;52.122;5.406;2023-03-23T09:10:27;10.00;;;1.73;;
72156;SDS011;60035;52.122;5.406;2023-03-23T09:12:55;8.18;;;1.65;;
72156;SDS011;60035;52.122;5.406;2023-03-23T09:15:21;6.82;;;1.70;;
72156;SDS011;60035;52.122;5.406;2023-03-23T09:17:48;11.63;;;2.33;;
72156;SDS011;60035;52.122;5.406;2023-03-23T09:20:17;11.98;;;1.63;;
72156;SDS011;60035;52.122;5.406;2023-03-23T09:22:46;8.13;;;1.73;;
72156;SDS011;60035;52.122;5.406;2023-03-23T09:25:14;8.45;;;1.55;;
72156;SDS011;60035;52.122;5.406;2023-03-23T09:27:44;9.57;;;2.00;;
72156;SDS011;60035;52.122;5.406;2023-03-23T09:30:12;7.40;;;1.48;;
72156;SDS011;60035;52.122;5.406;2023-03-23T09:32:39;12.65;;;2.15;;
72156;SDS011;60035;52.122;5.406;2023-03-23T09:35:08;6.93;;;2.08;;
72156;SDS011;60035;52.122;5.406;2023-03-23T09:37:36;10.75;;;2.05;;
72156;SDS011;60035;52.122;5.406;2023-03-23T09:40:03;7.55;;;1.30;;
72156;SDS011;60035;52.122;5.406;2023-03-23T09:46:00;9.20;;;1.73;;
72156;SDS011;60035;52.122;5.406;2023-03-23T09:51:22;10.70;;;1.67;;
72156;SDS011;60035;52.122;5.406;2023-03-23T09:54:09;7.93;;;1.52;;
72156;SDS011;60035;52.122;5.406;2023-03-23T09:56:45;7.55;;;1.50;;
72156;SDS011;60035;52.122;5.406;2023-03-23T10:01:57;8.70;;;1.60;;
72156;SDS011;60035;52.122;5.406;2023-03-23T10:04:45;9.75;;;1.83;;
72156;SDS011;60035;52.122;5.406;2023-03-23T10:07:13;10.32;;;1.70;;
72156;SDS011;60035;52.122;5.406;2023-03-23T10:09:42;6.88;;;1.40;;
72156;SDS011;60035;52.122;5.406;2023-03-23T10:12:16;11.45;;;1.92;;
72156;SDS011;60035;52.122;5.406;2023-03-23T10:17:37;7.88;;;1.10;;
72156;SDS011;60035;52.122;5.406;2023-03-23T10:23:01;9.30;;;1.60;;
72156;SDS011;60035;52.122;5.406;2023-03-23T10:25:35;9.82;;;1.75;;
72156;SDS011;60035;52.122;5.406;2023-03-23T10:28:13;8.25;;;1.63;;
72156;SDS011;60035;52.122;5.406;2023-03-23T10:30:45;8.43;;;1.42;;
72156;SDS011;60035;52.122;5.406;2023-03-23T10:33:20;7.65;;;1.35;;
72156;SDS011;60035;52.122;5.406;2023-03-23T10:41:23;10.32;;;1.55;;
72156;SDS011;60035;52.122;5.406;2023-03-23T10:43:48;7.07;;;1.10;;
72156;SDS011;60035;52.122;5.406;2023-03-23T10:49:05;7.80;;;1.33;;
72156;SDS011;60035;52.122;5.406;2023-03-23T10:51:35;12.82;;;2.00;;
72156;SDS011;60035;52.122;5.406;2023-03-23T10:54:03;12.05;;;2.33;;
72156;SDS011;60035;52.122;5.406;2023-03-23T10:59:13;10.23;;;1.45;;
72156;SDS011;60035;52.122;5.406;2023-03-23T11:01:42;10.02;;;2.17;;
72156;SDS011;60035;52.122;5.406;2023-03-23T11:04:13;8.32;;;1.50;;
72156;SDS011;60035;52.122;5.406;2023-03-23T11:06:45;8.38;;;1.58;;
72156;SDS011;60035;52.122;5.406;2023-03-23T11:09:17;10.02;;;1.52;;
72156;SDS011;60035;52.122;5.406;2023-03-23T11:11:54;6.85;;;1.10;;
72156;SDS011;60035;52.122;5.406;2023-03-23T11:14:28;9.18;;;1.50;;
72156;SDS011;60035;52.122;5.406;2023-03-23T11:16:56;9.93;;;1.58;;
72156;SDS011;60035;52.122;5.406;2023-03-23T11:19:26;9.38;;;1.98;;
72156;SDS011;60035;52.122;5.406;2023-03-23T11:21:55;9.25;;;1.65;;
72156;SDS011;60035;52.122;5.406;2023-03-23T11:24:35;8.68;;;1.42;;
72156;SDS011;60035;52.122;5.406;2023-03-23T11:27:05;5.90;;;1.13;;
72156;SDS011;60035;52.122;5.406;2023-03-23T11:29:33;10.90;;;1.80;;
72156;SDS011;60035;52.122;5.406;2023-03-23T11:34:36;8.95;;;1.90;;
72156;SDS011;60035;52.122;5.406;2023-03-23T11:39:59;10.00;;;1.50;;
72156;SDS011;60035;52.122;5.406;2023-03-23T11:42:36;10.32;;;1.30;;
72156;SDS011;60035;52.122;5.406;2023-03-23T11:45:18;10.82;;;1.67;;
72156;SDS011;60035;52.122;5.406;2023-03-23T11:50:50;12.48;;;1.50;;
72156;SDS011;60035;52.122;5.406;2023-03-23T11:53:22;8.00;;;1.52;;
72156;SDS011;60035;52.122;5.406;2023-03-23T11:55:55;12.15;;;1.50;;
72156;SDS011;60035;52.122;5.406;2023-03-23T11:58:29;9.50;;;1.88;;
72156;SDS011;60035;52.122;5.406;2023-03-23T12:01:17;12.65;;;1.67;;
72156;SDS011;60035;52.122;5.406;2023-03-23T12:20:22;13.93;;;1.63;;
72156;SDS011;60035;52.122;5.406;2023-03-23T12:23:11;10.48;;;1.63;;
72156;SDS011;60035;52.122;5.406;2023-03-23T12:25:52;15.57;;;1.80;;
72156;SDS011;60035;52.122;5.406;2023-03-23T12:31:05;7.88;;;1.40;;
72156;SDS011;60035;52.122;5.406;2023-03-23T12:36:24;10.45;;;1.38;;
72156;SDS011;60035;52.122;5.406;2023-03-23T12:42:04;8.13;;;1.40;;
72156;SDS011;60035;52.122;5.406;2023-03-23T12:44:48;8.35;;;1.30;;
72156;SDS011;60035;52.122;5.406;2023-03-23T12:49:59;5.63;;;1.13;;
72156;SDS011;60035;52.122;5.406;2023-03-23T12:52:35;9.55;;;1.75;;
72156;SDS011;60035;52.122;5.406;2023-03-23T12:58:08;8.73;;;1.50;;
72156;SDS011;60035;52.122;5.406;2023-03-23T13:05:47;10.13;;;2.08;;
72156;SDS011;60035;52.122;5.406;2023-03-23T13:08:21;8.20;;;1.33;;
72156;SDS011;60035;52.122;5.406;2023-03-23T13:10:53;6.10;;;1.73;;
72156;SDS011;60035;52.122;5.406;2023-03-23T13:13:23;7.22;;;1.55;;
72156;SDS011;60035;52.122;5.406;2023-03-23T13:15:55;9.63;;;1.15;;
72156;SDS011;60035;52.122;5.406;2023-03-23T13:23:41;5.88;;;1.10;;
72156;SDS011;60035;52.122;5.406;2023-03-23T13:26:11;10.25;;;1.40;;
72156;SDS011;60035;52.122;5.406;2023-03-23T13:31:34;7.03;;;1.08;;
72156;SDS011;60035;52.122;5.406;2023-03-23T13:34:03;7.55;;;1.50;;
72156;SDS011;60035;52.122;5.406;2023-03-23T13:36:42;8.80;;;1.25;;
72156;SDS011;60035;52.122;5.406;2023-03-23T13:39:17;6.90;;;1.27;;
72156;SDS011;60035;52.122;5.406;2023-03-23T13:41:46;9.30;;;1.70;;
72156;SDS011;60035;52.122;5.406;2023-03-23T13:49:55;6.55;;;1.00;;
72156;SDS011;60035;52.122;5.406;2023-03-23T14:03:09;6.22;;;1.15;;
72156;SDS011;60035;52.122;5.406;2023-03-23T14:10:35;8.07;;;1.25;;
72156;SDS011;60035;52.122;5.406;2023-03-23T14:13:04;7.18;;;1.50;;
72156;SDS011;60035;52.122;5.406;2023-03-23T14:15:37;5.82;;;1.20;;
72156;SDS011;60035;52.122;5.406;2023-03-23T14:18:11;5.22;;;1.27;;
72156;SDS011;60035;52.122;5.406;2023-03-23T14:20:39;5.80;;;1.35;;
72156;SDS011;60035;52.122;5.406;2023-03-23T14:23:05;8.35;;;1.65;;
72156;SDS011;60035;52.122;5.406;2023-03-23T14:25:31;7.10;;;1.33;;
72156;SDS011;60035;52.122;5.406;2023-03-23T14:27:59;10.27;;;1.55;;
72156;SDS011;60035;52.122;5.406;2023-03-23T14:30:25;5.45;;;1.20;;
72156;SDS011;60035;52.122;5.406;2023-03-23T14:33:05;6.38;;;1.60;;
72156;SDS011;60035;52.122;5.406;2023-03-23T14:35:34;6.95;;;1.33;;
72156;SDS011;60035;52.122;5.406;2023-03-23T14:38:02;7.38;;;1.40;;
72156;SDS011;60035;52.122;5.406;2023-03-23T14:40:29;8.50;;;1.45;;
72156;SDS011;60035;52.122;5.406;2023-03-23T14:42:55;6.75;;;1.58;;
72156;SDS011;60035;52.122;5.406;2023-03-23T14:45:23;5.40;;;1.30;;
72156;SDS011;60035;52.122;5.406;2023-03-23T14:47:57;8.18;;;1.52;;
72156;SDS011;60035;52.122;5.406;2023-03-23T14:52:59;7.40;;;1.23;;
72156;SDS011;60035;52.122;5.406;2023-03-23T14:55:27;9.88;;;1.13;;
72156;SDS011;60035;52.122;5.406;2023-03-23T14:57:56;6.25;;;1.02;;
72156;SDS011;60035;52.122;5.406;2023-03-23T15:00:45;5.40;;;1.33;;
72156;SDS011;60035;52.122;5.406;2023-03-23T15:03:35;7.20;;;1.30;;
72156;SDS011;60035;52.122;5.406;2023-03-23T15:06:11;7.78;;;1.40;;
72156;SDS011;60035;52.122;5.406;2023-03-23T15:08:41;6.20;;;0.93;;
72156;SDS011;60035;52.122;5.406;2023-03-23T15:11:08;7.82;;;1.23;;
72156;SDS011;60035;52.122;5.406;2023-03-23T15:13:41;9.27;;;1.52;;
72156;SDS011;60035;52.122;5.406;2023-03-23T15:16:13;8.35;;;1.48;;
72156;SDS011;60035;52.122;5.406;2023-03-23T15:18:46;9.70;;;1.40;;
72156;SDS011;60035;52.122;5.406;2023-03-23T15:21:30;6.93;;;1.60;;
72156;SDS011;60035;52.122;5.406;2023-03-23T15:24:18;8.55;;;1.30;;
72156;SDS011;60035;52.122;5.406;2023-03-23T15:27:17;8.90;;;1.52;;
72156;SDS011;60035;52.122;5.406;2023-03-23T15:29:52;10.25;;;1.30;;
72156;SDS011;60035;52.122;5.406;2023-03-23T15:35:09;10.00;;;1.60;;
72156;SDS011;60035;52.122;5.406;2023-03-23T15:37:49;6.88;;;1.10;;
72156;SDS011;60035;52.122;5.406;2023-03-23T15:40:22;5.80;;;1.08;;
72156;SDS011;60035;52.122;5.406;2023-03-23T15:42:49;8.65;;;1.40;;
72156;SDS011;60035;52.122;5.406;2023-03-23T15:45:30;6.55;;;1.13;;
72156;SDS011;60035;52.122;5.406;2023-03-23T15:47:58;7.22;;;1.10;;
72156;SDS011;60035;52.122;5.406;2023-03-23T15:50:35;10.35;;;1.80;;
72156;SDS011;60035;52.122;5.406;2023-03-23T15:53:01;6.20;;;1.27;;
72156;SDS011;60035;52.122;5.406;2023-03-23T15:55:38;9.73;;;1.30;;
72156;SDS011;60035;52.122;5.406;2023-03-23T15:58:08;8.07;;;1.17;;
72156;SDS011;60035;52.122;5.406;2023-03-23T16:00:37;7.57;;;1.27;;
72156;SDS011;60035;52.122;5.406;2023-03-23T16:03:05;6.93;;;1.30;;
72156;SDS011;60035;52.122;5.406;2023-03-23T16:05:37;9.20;;;1.48;;
72156;SDS011;60035;52.122;5.406;2023-03-23T16:08:04;9.10;;;1.48;;
72156;SDS011;60035;52.122;5.406;2023-03-23T16:10:31;8.52;;;1.50;;
72156;SDS011;60035;52.122;5.406;2023-03-23T16:12:57;6.30;;;1.40;;
72156;SDS011;60035;52.122;5.406;2023-03-23T16:15:24;7.35;;;1.80;;
72156;SDS011;60035;52.122;5.406;2023-03-23T16:17:51;10.52;;;1.60;;
72156;SDS011;60035;52.122;5.406;2023-03-23T16:20:18;12.93;;;1.42;;
72156;SDS011;60035;52.122;5.406;2023-03-23T16:22:47;9.10;;;1.45;;
72156;SDS011;60035;52.122;5.406;2023-03-23T16:25:14;10.05;;;1.30;;
72156;SDS011;60035;52.122;5.406;2023-03-23T16:27:41;8.60;;;1.60;;
72156;SDS011;60035;52.122;5.406;2023-03-23T16:30:18;11.27;;;1.88;;
72156;SDS011;60035;52.122;5.406;2023-03-23T16:32:47;8.73;;;1.52;;
72156;SDS011;60035;52.122;5.406;2023-03-23T16:35:14;8.13;;;1.30;;
72156;SDS011;60035;52.122;5.406;2023-03-23T16:37:47;8.00;;;1.75;;
72156;SDS011;60035;52.122;5.406;2023-03-23T16:40:16;7.65;;;1.33;;
72156;SDS011;60035;52.122;5.406;2023-03-23T16:42:44;7.70;;;1.80;;
72156;SDS011;60035;52.122;5.406;2023-03-23T16:45:11;7.97;;;1.38;;
72156;SDS011;60035;52.122;5.406;2023-03-23T16:47:39;11.45;;;2.00;;
72156;SDS011;60035;52.122;5.406;2023-03-23T16:50:07;8.02;;;1.40;;
72156;SDS011;60035;52.122;5.406;2023-03-23T16:52:42;7.55;;;1.40;;
72156;SDS011;60035;52.122;5.406;2023-03-23T16:55:13;9.90;;;2.17;;
72156;SDS011;60035;52.122;5.406;2023-03-23T16:57:42;9.05;;;1.80;;
72156;SDS011;60035;52.122;5.406;2023-03-23T17:00:13;7.43;;;1.80;;
72156;SDS011;60035;52.122;5.406;2023-03-23T17:02:41;11.77;;;2.03;;
72156;SDS011;60035;52.122;5.406;2023-03-23T17:05:12;9.18;;;1.60;;
72156;SDS011;60035;52.122;5.406;2023-03-23T17:07:40;9.20;;;1.77;;
72156;SDS011;60035;52.122;5.406;2023-03-23T17:10:08;7.00;;;1.60;;